Lakeland Linder Regional Airport
KLAL : now visible

Airfield :











YOU CAN JOIN US ON...

 
LOGIN :

Register | Disclaimer

   EN    FR    IT 

 









Legend :    VFR   Marginal VFR   IFR   Intensive IFR   Very Intensive IFR
Visi :
Ceiling :
>= 8 km
>= 3000ft
5 to 8 km
1000 to 3000 ft
1500m to 5 km
500 to 1000 ft
800 to 1500m
200 to 500 ft
< 800m
< 200 ft
Symbols :   Thunderstorms  Fog  Heavy snow  Heavy precipitations  Wind > 20 kt






- Airport Elevation : 142 ft


KLAL - Lakeland Linder Regional

CURRENT METAR :
  • 281150Z 00000KT 10SM SKC 19/18 A3006

EXPIRED METARs :
  • 281050Z 16003KT 10SM SKC 19/18 A3005
  • 280950Z 17003KT 10SM SKC 20/18 A3004

TAF KLAL
Valid from the 28 at 12:00 until the 29 at 12:00 UTC


281136Z 2812/2912 VRB03KT P6SM FEW010
TEMPO 2812/2814 5SM BR BKN010
FM281400 16007KT P6SM SKC
FM281900 20009KT P6SM SKC
FM290000 VRB03KT P6SM SKC



MET'MAP, your aeronautical weather chart ! - Copyright ORBIFLY December 2007 - Disclaimer

ORBIFLY MET'MAP TEAM :

Programming & Development : Alexandra Zaïnal
Concept & original design : Baudouin d'Aumeries
Assistance for programming : Marc-Olivier Méhu
Technical & hardware support : Manuel Goepfert

Contact : metmap@orbifly.com




SOURCES & CREDITS :

   NOAA       Earth
Advisory